Startpagina
METAR-TAF:

METAR-TAF

Vliegvelden :

Šiauliai, Litouwen

breedte: 55-53-38N, lengte: 023-23-42E, hoogte: 135 m

Actueel weer

Dit bericht is 10 minuten geleden gemaakt, om 18:50 UTC
Wind 9 kt uit het zuidzuidwesten
Temperatuur 4°C
Vochtigheid 70%
Druk 1008 hPa
Zicht 10 km of meer
geen wolken onder 1500 m en geen cumulonimbus

METAR: EYSA 171850Z 20009KT CAVOK 04/M01 Q1008 R14L/19//95 R14R/19//95 BLU NOSIG

Tijdstip: 21:00 (19:00 UTC)

Verwachting

Dit bericht is 1 uur en het 54 minuten geleden gemaakt, om 17:06 UTC
Verwachting geldig van 17 om 18 UTC tot 18 om 03 UTC
Wind 16 kt uit het zuidwesten met uitschieters tot 28 kt
Zicht: 9000 m
Verspreide wolken op 4000 ft
Tijdelijke
van 18 om 00 UTC tot 18 om 06 UTC
Verspreide wolken op 1000 ft

TAF: EYSA 171706Z 1718/1803 22016G28KT 9000 SCT040 TEMPO 1800/1806 SCT010

Waarnemingen en weersverwachtingen van meer dan 4000 vliegvelden (METAR en TAF).

De beschikbare stations zijn de gele en rode punten op de kaart.

Ga met uw muis naar het station om de naam te zien.

Klik dan om waarnemingen en weersverwachtingen te zien.

kaart wijzigen: klik op de groene knoppen met een zwart kruis om in te zoomen, op de groene knop met een streepje om uit te zoomen of op de groene pijlen voor aangrenzende kaarten.


METAR-TAF: